createdAt,value
2023-02-21T06:01:28.075Z,99.99
2023-02-21T06:09:39.142Z,99.99
2023-02-21T06:14:11.067Z,99.99
2023-02-21T06:18:33.014Z,99.99
2023-02-21T06:26:56.720Z,99.99
2023-02-21T06:30:24.879Z,99.99
2023-02-21T06:43:16.112Z,99.99
2023-02-21T06:52:32.576Z,99.99
2023-02-21T06:55:35.825Z,99.99
2023-02-21T06:58:40.747Z,99.99
2023-02-21T07:42:41.932Z,99.99
2023-02-21T07:49:34.906Z,99.66
2023-02-21T07:54:38.537Z,99.35
2023-02-21T08:01:00.855Z,99.00
2023-02-21T08:10:10.229Z,98.49
2023-02-21T08:14:53.067Z,98.38
2023-02-21T08:38:46.526Z,97.10
2023-02-21T08:47:59.060Z,96.39
2023-02-21T09:00:18.757Z,95.97
2023-02-21T09:09:32.517Z,95.83
2023-02-21T09:14:40.557Z,95.56
2023-02-21T09:21:04.226Z,95.67
2023-02-21T09:24:24.613Z,95.77
2023-02-21T09:30:43.171Z,95.97
2023-02-21T09:35:36.676Z,95.46
2023-02-21T09:48:16.948Z,95.56
2023-02-21T09:57:54.497Z,95.77
2023-02-21T10:02:14.889Z,95.87
2023-02-21T10:13:28.940Z,95.77
2023-02-21T10:18:28.736Z,95.42
2023-02-21T10:22:53.766Z,95.42
2023-02-21T10:31:32.453Z,95.46
2023-02-21T10:36:40.048Z,95.77
2023-02-21T10:39:32.292Z,95.67
2023-02-21T10:45:16.156Z,95.67
2023-02-21T10:50:04.349Z,95.56
2023-02-21T10:54:25.754Z,95.87
2023-02-21T10:59:19.704Z,96.14
2023-02-21T11:11:06.125Z,95.83
2023-02-21T11:16:54.067Z,96.23
2023-02-21T11:21:43.452Z,96.34
2023-02-21T11:26:57.490Z,96.44
2023-02-21T11:44:24.018Z,95.83
2023-02-21T11:49:12.695Z,95.78
2023-02-21T11:53:37.927Z,95.78
2023-02-21T11:58:54.961Z,95.98
2023-02-21T12:02:10.411Z,96.19
2023-02-21T12:05:06.744Z,96.19
2023-02-21T12:18:28.050Z,94.65
2023-02-21T12:21:54.312Z,94.45
2023-02-21T12:30:16.188Z,94.61
2023-02-21T12:33:20.723Z,94.20
2023-02-21T12:36:26.977Z,94.30
2023-02-21T12:40:17.853Z,94.61
2023-02-21T12:46:20.635Z,94.05
2023-02-21T12:51:18.751Z,93.95
2023-02-21T12:55:27.191Z,93.54
2023-02-21T13:03:36.708Z,92.51
2023-02-21T13:06:39.854Z,92.47
2023-02-21T13:13:05.867Z,91.71
2023-02-21T13:17:16.373Z,91.20
2023-02-21T13:21:26.034Z,90.48
2023-02-21T13:25:36.973Z,90.13
2023-02-21T13:31:14.342Z,90.03
2023-02-21T13:38:00.643Z,88.65
2023-02-21T13:43:17.240Z,88.41
2023-02-21T13:49:24.808Z,87.38
2023-02-21T13:55:53.787Z,87.29
2023-02-21T14:00:13.412Z,87.45
2023-02-21T14:06:40.455Z,86.73
2023-02-21T14:11:42.784Z,86.94
2023-02-21T14:14:51.973Z,86.32
2023-02-21T14:21:57.169Z,86.94
2023-02-21T14:25:12.623Z,86.43
2023-02-21T14:28:16.242Z,86.63
2023-02-21T14:32:18.105Z,86.94
2023-02-21T14:37:19.885Z,86.83
2023-02-21T14:45:59.775Z,85.40
2023-02-21T14:50:00.373Z,85.10
2023-02-21T15:02:36.639Z,86.22
2023-02-21T21:37:27.597Z,96.48
